Time;durP1;ratioP1;P1;durP2;ratioP2;P2;SDS_P1;SDS_P2;PMS_P1;PMS_P2;Temp;Humidity;BMP_temperature;BMP_pressure;BME280_temperature;BME280_humidity;BME280_pressure;Samples;Min_cycle;Max_cycle;Signal;HPM_P1;HPM_P2
2022/10/01 00:00:49;;;;;;;58.77;3.90;;;;;;;;;;5053368;28;20449;-68
2022/10/01 00:03:16;;;;;;;62.90;5.00;;;;;;;;;;5053571;28;20838;-65
2022/10/01 00:05:44;;;;;;;60.80;4.10;;;;;;;;;;5053779;28;20839;-66
2022/10/01 00:08:11;;;;;;;58.67;3.70;;;;;;;;;;5053670;28;20602;-67
2022/10/01 00:10:41;;;;;;;59.57;4.10;;;;;;;;;;5053193;28;20448;-65
2022/10/01 00:13:10;;;;;;;59.30;4.70;;;;;;;;;;5053592;28;20449;-65
2022/10/01 00:15:39;;;;;;;63.17;4.45;;;;;;;;;;5053348;28;20480;-68
2022/10/01 00:18:07;;;;;;;60.90;4.40;;;;;;;;;;5053526;28;20206;-65
2022/10/01 00:20:34;;;;;;;60.90;4.47;;;;;;;;;;5051273;28;20936;-66
2022/10/01 00:23:01;;;;;;;60.17;3.80;;;;;;;;;;5053526;28;20444;-65
2022/10/01 00:25:29;;;;;;;62.87;4.53;;;;;;;;;;5053243;28;20475;-66
2022/10/01 00:27:56;;;;;;;59.37;4.03;;;;;;;;;;5046145;28;20520;-67
2022/10/01 00:30:24;;;;;;;61.17;3.77;;;;;;;;;;5032784;28;20445;-66
2022/10/01 00:32:53;;;;;;;60.40;5.07;;;;;;;;;;5033404;28;20446;-65
2022/10/01 00:35:21;;;;;;;60.63;4.20;;;;;;;;;;5033172;28;20531;-65
2022/10/01 00:37:49;;;;;;;59.57;4.37;;;;;;;;;;5033127;28;20518;-67
2022/10/01 00:40:17;;;;;;;59.40;3.40;;;;;;;;;;5032698;28;20929;-65
2022/10/01 00:42:44;;;;;;;59.90;5.03;;;;;;;;;;5032912;28;20445;-67
2022/10/01 00:45:11;;;;;;;60.50;4.23;;;;;;;;;;5033144;28;20473;-65
2022/10/01 00:47:42;;;;;;;63.27;5.00;;;;;;;;;;5033103;28;20491;-65
2022/10/01 00:50:15;;;;;;;66.10;4.07;;;;;;;;;;5032721;28;20453;-66
2022/10/01 00:52:44;;;;;;;59.00;3.50;;;;;;;;;;5047118;28;20483;-64
2022/10/01 00:55:12;;;;;;;60.13;3.17;;;;;;;;;;5052009;28;20221;-66
2022/10/01 00:57:39;;;;;;;59.10;3.27;;;;;;;;;;5052844;28;20452;-65
2022/10/01 01:00:08;;;;;;;60.10;4.67;;;;;;;;;;5052486;28;20459;-68
2022/10/01 01:02:35;;;;;;;59.57;3.87;;;;;;;;;;5052441;28;20463;-66
2022/10/01 01:05:04;;;;;;;60.23;4.63;;;;;;;;;;5052557;28;20472;-66
2022/10/01 01:07:32;;;;;;;59.50;4.00;;;;;;;;;;5052861;28;20448;-65
2022/10/01 01:09:59;;;;;;;61.13;3.88;;;;;;;;;;5051903;28;20448;-66
2022/10/01 01:12:37;;;;;;;60.90;4.50;;;;;;;;;;5052342;28;20206;-65
2022/10/01 01:15:10;;;;;;;59.67;4.20;;;;;;;;;;5052411;28;20480;-65
2022/10/01 01:17:42;;;;;;;59.10;3.70;;;;;;;;;;5052267;28;20917;-68
2022/10/01 01:20:20;;;;;;;59.50;3.70;;;;;;;;;;5051905;28;20448;-68
2022/10/01 01:22:51;;;;;;;60.10;3.93;;;;;;;;;;5051888;28;20963;-66
2022/10/01 01:25:20;;;;;;;58.97;3.90;;;;;;;;;;5051555;28;20468;-65
2022/10/01 01:27:51;;;;;;;59.97;3.90;;;;;;;;;;5052022;28;20484;-68
2022/10/01 01:30:20;;;;;;;59.73;4.00;;;;;;;;;;5051914;28;20452;-65
2022/10/01 01:32:50;;;;;;;58.20;3.00;;;;;;;;;;5052151;28;20452;-65
2022/10/01 01:35:22;;;;;;;59.77;4.33;;;;;;;;;;5052086;28;20486;-67
2022/10/01 01:37:52;;;;;;;61.03;4.57;;;;;;;;;;5052165;28;20455;-65
2022/10/01 01:40:20;;;;;;;64.23;3.80;;;;;;;;;;5051769;28;20945;-65
2022/10/01 01:42:47;;;;;;;58.83;3.37;;;;;;;;;;5052127;28;20456;-65
2022/10/01 01:45:17;;;;;;;58.97;3.17;;;;;;;;;;5051880;28;20992;-65
2022/10/01 01:47:46;;;;;;;61.10;4.40;;;;;;;;;;5050106;28;20453;-66
2022/10/01 01:50:15;;;;;;;58.57;3.80;;;;;;;;;;5051540;28;20456;-66
2022/10/01 01:52:42;;;;;;;59.10;3.50;;;;;;;;;;5052162;28;20452;-68
2022/10/01 01:55:09;;;;;;;59.27;3.93;;;;;;;;;;5051847;28;20464;-65
2022/10/01 01:57:38;;;;;;;59.50;3.90;;;;;;;;;;5052019;28;20466;-67
2022/10/01 02:00:06;;;;;;;59.20;3.57;;;;;;;;;;5051452;28;20452;-66
2022/10/01 02:02:34;;;;;;;59.00;3.70;;;;;;;;;;5051862;28;20540;-66
2022/10/01 02:05:04;;;;;;;59.63;3.90;;;;;;;;;;5051415;28;20471;-66
2022/10/01 02:07:41;;;;;;;59.37;4.17;;;;;;;;;;5051850;28;20452;-66
2022/10/01 02:10:15;;;;;;;62.50;4.33;;;;;;;;;;5051401;28;20448;-67
2022/10/01 02:12:49;;;;;;;65.00;4.70;;;;;;;;;;5051644;28;20940;-66
2022/10/01 02:15:21;;;;;;;59.83;3.87;;;;;;;;;;5051922;28;20496;-66
2022/10/01 02:17:51;;;;;;;59.20;3.07;;;;;;;;;;5051791;28;20448;-65
2022/10/01 02:20:21;;;;;;;59.77;3.73;;;;;;;;;;5051441;28;20448;-65
2022/10/01 02:22:51;;;;;;;58.90;3.40;;;;;;;;;;5051789;28;20640;-65
2022/10/01 02:25:19;;;;;;;58.23;2.97;;;;;;;;;;5051425;28;20988;-65
2022/10/01 02:27:49;;;;;;;59.30;3.77;;;;;;;;;;5051686;28;20448;-65
2022/10/01 02:30:16;;;;;;;58.13;2.70;;;;;;;;;;5051127;28;20448;-65
2022/10/01 02:32:44;;;;;;;58.57;3.13;;;;;;;;;;5051563;28;20463;-68
2022/10/01 02:35:13;;;;;;;58.70;4.07;;;;;;;;;;5051447;28;20507;-66
2022/10/01 02:37:44;;;;;;;59.20;4.00;;;;;;;;;;5051344;28;20452;-65
2022/10/01 02:40:14;;;;;;;59.00;3.70;;;;;;;;;;5051358;28;20845;-65
2022/10/01 02:42:42;;;;;;;58.50;3.40;;;;;;;;;;5051618;28;20488;-67
2022/10/01 02:45:10;;;;;;;58.00;2.80;;;;;;;;;;5051372;28;20472;-68
2022/10/01 02:47:38;;;;;;;58.27;2.97;;;;;;;;;;5051453;28;20444;-65
2022/10/01 02:50:05;;;;;;;59.63;3.10;;;;;;;;;;5050903;28;20494;-63
2022/10/01 02:52:35;;;;;;;59.77;3.70;;;;;;;;;;5051536;28;20448;-66
2022/10/01 02:55:05;;;;;;;60.30;3.37;;;;;;;;;;5051416;28;20479;-66
2022/10/01 02:57:32;;;;;;;59.00;3.07;;;;;;;;;;5051433;28;20459;-66
2022/10/01 03:00:01;;;;;;;58.10;2.93;;;;;;;;;;5050970;28;20444;-65
2022/10/01 03:02:30;;;;;;;59.10;3.20;;;;;;;;;;5051128;28;20542;-65
2022/10/01 03:04:57;;;;;;;60.20;4.13;;;;;;;;;;5051358;28;20472;-66
2022/10/01 03:07:25;;;;;;;58.67;3.33;;;;;;;;;;5051376;28;20444;-66
2022/10/01 03:09:52;;;;;;;60.80;3.93;;;;;;;;;;5050689;28;21015;-67
2022/10/01 03:12:21;;;;;;;58.00;2.80;;;;;;;;;;5051241;28;20452;-66
2022/10/01 03:14:48;;;;;;;58.60;3.70;;;;;;;;;;5051515;28;20823;-68
2022/10/01 03:17:15;;;;;;;59.07;3.93;;;;;;;;;;5052337;28;20447;-66
2022/10/01 03:19:43;;;;;;;58.80;3.50;;;;;;;;;;5054318;28;20535;-66
2022/10/01 03:22:11;;;;;;;58.60;3.20;;;;;;;;;;5054930;28;20799;-65
2022/10/01 03:24:38;;;;;;;58.70;3.17;;;;;;;;;;5054587;28;20470;-68
2022/10/01 03:27:05;;;;;;;61.13;4.43;;;;;;;;;;5054647;28;20968;-66
2022/10/01 03:29:34;;;;;;;58.17;2.93;;;;;;;;;;5054624;28;20487;-69
2022/10/01 03:32:01;;;;;;;58.80;3.70;;;;;;;;;;5054445;28;20873;-67
2022/10/01 03:34:28;;;;;;;59.90;3.83;;;;;;;;;;5054329;28;21014;-65
2022/10/01 03:36:55;;;;;;;58.70;3.33;;;;;;;;;;5054657;28;20455;-66
2022/10/01 03:39:23;;;;;;;58.10;3.00;;;;;;;;;;5054046;28;20973;-65
2022/10/01 03:41:50;;;;;;;58.23;2.67;;;;;;;;;;5054429;28;20450;-65
2022/10/01 03:44:17;;;;;;;58.93;3.77;;;;;;;;;;5054172;28;20448;-66
2022/10/01 03:46:45;;;;;;;58.70;3.40;;;;;;;;;;5054528;28;20479;-65
2022/10/01 03:49:12;;;;;;;59.57;3.23;;;;;;;;;;5053863;28;21003;-65
2022/10/01 03:51:40;;;;;;;58.53;3.20;;;;;;;;;;5054318;28;20467;-65
2022/10/01 03:54:08;;;;;;;57.83;2.73;;;;;;;;;;5054138;28;20452;-65
2022/10/01 03:56:36;;;;;;;58.30;2.90;;;;;;;;;;5054054;28;20952;-65
2022/10/01 03:59:04;;;;;;;59.17;3.30;;;;;;;;;;5053859;28;20541;-68
2022/10/01 04:01:31;;;;;;;58.20;2.73;;;;;;;;;;5053930;28;20967;-65
2022/10/01 04:03:59;;;;;;;59.43;3.97;;;;;;;;;;5054050;28;20448;-66
2022/10/01 04:06:26;;;;;;;59.87;3.50;;;;;;;;;;5053756;28;20473;-65
2022/10/01 04:08:53;;;;;;;59.10;3.83;;;;;;;;;;5053516;28;20490;-65
2022/10/01 04:11:20;;;;;;;63.90;3.23;;;;;;;;;;5053713;28;20448;-65
2022/10/01 04:13:48;;;;;;;59.70;3.80;;;;;;;;;;5053888;28;20441;-65
2022/10/01 04:16:15;;;;;;;58.90;3.67;;;;;;;;;;5053778;28;20468;-65
2022/10/01 04:18:42;;;;;;;57.97;2.90;;;;;;;;;;5053410;28;20455;-65
2022/10/01 04:21:12;;;;;;;58.47;3.20;;;;;;;;;;5054075;28;20471;-65
2022/10/01 04:23:39;;;;;;;58.17;3.00;;;;;;;;;;5053561;28;20440;-65
2022/10/01 04:26:07;;;;;;;58.30;2.67;;;;;;;;;;5053341;28;20490;-68
2022/10/01 04:28:34;;;;;;;58.70;3.33;;;;;;;;;;5052258;28;20463;-69
2022/10/01 04:33:45;;;;;;;58.30;2.77;;;;;;;;;;5053374;28;20448;-65
2022/10/01 04:36:14;;;;;;;58.97;3.63;;;;;;;;;;5053223;28;20464;-67
2022/10/01 04:38:41;;;;;;;58.97;2.97;;;;;;;;;;5053099;28;20440;-66
2022/10/01 04:41:09;;;;;;;58.50;3.50;;;;;;;;;;5053429;28;20452;-68
2022/10/01 04:43:36;;;;;;;61.47;3.57;;;;;;;;;;5053319;28;20509;-65
2022/10/01 04:46:03;;;;;;;58.50;3.30;;;;;;;;;;5053036;28;20988;-65
2022/10/01 04:48:30;;;;;;;58.77;3.13;;;;;;;;;;5052807;28;20448;-65
2022/10/01 04:50:57;;;;;;;58.83;3.53;;;;;;;;;;5053137;28;20453;-65
2022/10/01 04:53:26;;;;;;;58.60;3.20;;;;;;;;;;5053209;28;20518;-65
2022/10/01 04:55:53;;;;;;;59.97;3.37;;;;;;;;;;5052998;28;20468;-70
2022/10/01 04:58:20;;;;;;;58.90;3.77;;;;;;;;;;5052884;28;20452;-65
2022/10/01 05:00:49;;;;;;;59.20;3.40;;;;;;;;;;5052671;28;20802;-68
2022/10/01 05:03:16;;;;;;;58.23;3.00;;;;;;;;;;5052887;28;20861;-65
2022/10/01 05:05:43;;;;;;;58.30;3.03;;;;;;;;;;5052587;28;20464;-65
2022/10/01 05:08:10;;;;;;;58.30;2.90;;;;;;;;;;5052847;28;20798;-65
2022/10/01 05:10:38;;;;;;;58.30;3.00;;;;;;;;;;5052343;28;20484;-65
2022/10/01 05:13:06;;;;;;;58.17;3.00;;;;;;;;;;5052727;28;20863;-66
2022/10/01 05:15:34;;;;;;;59.63;3.47;;;;;;;;;;5052569;28;20472;-65
2022/10/01 05:18:01;;;;;;;58.40;3.20;;;;;;;;;;5052442;28;20854;-66
2022/10/01 05:20:29;;;;;;;59.13;2.60;;;;;;;;;;5052149;28;20948;-65
2022/10/01 05:22:56;;;;;;;58.50;2.90;;;;;;;;;;5052589;28;20518;-67
2022/10/01 05:25:23;;;;;;;58.20;3.20;;;;;;;;;;5052439;28;20522;-65
2022/10/01 05:27:52;;;;;;;58.80;2.90;;;;;;;;;;5052443;28;20506;-65
2022/10/01 05:30:22;;;;;;;58.10;3.00;;;;;;;;;;5051951;28;20480;-65
2022/10/01 05:32:57;;;;;;;57.77;2.80;;;;;;;;;;5052241;28;20444;-65
2022/10/01 05:35:24;;;;;;;58.07;3.00;;;;;;;;;;5052128;28;20509;-65
2022/10/01 05:37:53;;;;;;;58.10;2.90;;;;;;;;;;5052228;28;20452;-65
2022/10/01 05:40:20;;;;;;;58.50;2.80;;;;;;;;;;5051741;28;20947;-68
2022/10/01 05:42:47;;;;;;;58.80;3.40;;;;;;;;;;5052117;28;20466;-65
2022/10/01 05:45:19;;;;;;;58.30;3.00;;;;;;;;;;5051883;28;20465;-67
2022/10/01 05:47:47;;;;;;;58.50;3.77;;;;;;;;;;5052231;28;20452;-66
2022/10/01 05:50:15;;;;;;;57.97;2.90;;;;;;;;;;5051740;28;20488;-68
2022/10/01 05:52:48;;;;;;;58.50;3.23;;;;;;;;;;5051963;28;20452;-66
2022/10/01 05:55:15;;;;;;;57.67;2.90;;;;;;;;;;5052132;28;20475;-66
2022/10/01 05:57:42;;;;;;;58.20;3.10;;;;;;;;;;5052296;28;20855;-65
2022/10/01 06:00:11;;;;;;;58.10;2.90;;;;;;;;;;5051728;28;20444;-65
2022/10/01 06:02:40;;;;;;;57.73;2.60;;;;;;;;;;5051994;28;20448;-65
2022/10/01 06:05:07;;;;;;;58.20;2.70;;;;;;;;;;5051723;28;20476;-67
2022/10/01 06:07:34;;;;;;;58.60;2.77;;;;;;;;;;5051733;28;20975;-65
2022/10/01 06:10:01;;;;;;;58.50;3.00;;;;;;;;;;5051173;28;20483;-65
2022/10/01 06:12:28;;;;;;;58.40;3.00;;;;;;;;;;5051633;28;20455;-64
2022/10/01 06:14:56;;;;;;;57.87;2.57;;;;;;;;;;5051726;28;20846;-65
2022/10/01 06:17:23;;;;;;;57.90;2.70;;;;;;;;;;5051780;28;20450;-65
2022/10/01 06:19:51;;;;;;;58.17;2.90;;;;;;;;;;5051309;28;20448;-66
2022/10/01 06:22:18;;;;;;;58.30;3.00;;;;;;;;;;5051567;28;20448;-65
2022/10/01 06:24:45;;;;;;;58.00;2.70;;;;;;;;;;5051401;28;20468;-68
2022/10/01 06:27:12;;;;;;;58.20;3.00;;;;;;;;;;5051530;28;20453;-66
2022/10/01 06:29:39;;;;;;;58.03;2.70;;;;;;;;;;5051289;28;20506;-68
2022/10/01 06:32:09;;;;;;;57.93;2.40;;;;;;;;;;5051653;28;20444;-65
2022/10/01 06:34:36;;;;;;;57.93;2.60;;;;;;;;;;5051347;28;20515;-66
2022/10/01 06:37:05;;;;;;;58.07;2.80;;;;;;;;;;5051464;28;20447;-65
2022/10/01 06:39:32;;;;;;;58.60;3.20;;;;;;;;;;5051027;28;20448;-68
2022/10/01 06:41:59;;;;;;;58.60;2.87;;;;;;;;;;5051673;28;20454;-65
2022/10/01 06:44:26;;;;;;;58.67;3.40;;;;;;;;;;5051508;28;20474;-67
2022/10/01 06:46:53;;;;;;;58.47;3.10;;;;;;;;;;5051379;28;20933;-66
2022/10/01 06:49:21;;;;;;;58.17;2.90;;;;;;;;;;5051052;28;20487;-66
2022/10/01 06:54:35;;;;;;;61.50;3.60;;;;;;;;;;5055228;28;20447;-65
2022/10/01 06:57:02;;;;;;;61.10;3.37;;;;;;;;;;5055231;28;20455;-65
2022/10/01 06:59:29;;;;;;;58.37;3.10;;;;;;;;;;5054892;28;20831;-65
2022/10/01 07:01:56;;;;;;;58.80;3.10;;;;;;;;;;5055174;28;20454;-66
2022/10/01 07:04:23;;;;;;;58.90;3.43;;;;;;;;;;5054861;28;20467;-66
2022/10/01 07:06:51;;;;;;;58.90;3.33;;;;;;;;;;5055033;28;20458;-66
2022/10/01 07:09:18;;;;;;;58.17;3.10;;;;;;;;;;5054737;28;20539;-65
2022/10/01 07:11:46;;;;;;;58.47;3.10;;;;;;;;;;5055042;28;20450;-67
2022/10/01 07:14:13;;;;;;;58.30;3.00;;;;;;;;;;5054845;28;20452;-66
2022/10/01 07:16:40;;;;;;;58.37;3.00;;;;;;;;;;5054816;28;20450;-66
2022/10/01 07:19:07;;;;;;;59.60;3.60;;;;;;;;;;5054636;28;20444;-65
2022/10/01 07:21:34;;;;;;;58.00;2.67;;;;;;;;;;5054961;28;20448;-65
2022/10/01 07:24:02;;;;;;;58.20;2.80;;;;;;;;;;5054918;28;20455;-65
2022/10/01 07:26:29;;;;;;;59.13;3.73;;;;;;;;;;5054842;28;20710;-65
2022/10/01 07:28:57;;;;;;;58.60;3.40;;;;;;;;;;5054386;28;20455;-66
2022/10/01 07:31:24;;;;;;;60.27;3.60;;;;;;;;;;5054467;28;20508;-65
2022/10/01 07:33:57;;;;;;;58.80;2.90;;;;;;;;;;5054673;28;20463;-67
2022/10/01 07:36:24;;;;;;;58.70;3.70;;;;;;;;;;5054424;28;20468;-66
2022/10/01 07:38:51;;;;;;;58.20;2.87;;;;;;;;;;5054217;28;20800;-65
2022/10/01 07:41:18;;;;;;;58.00;3.03;;;;;;;;;;5054511;28;20444;-66
2022/10/01 07:43:47;;;;;;;57.87;2.70;;;;;;;;;;5054310;28;20562;-65
2022/10/01 07:46:15;;;;;;;58.10;2.60;;;;;;;;;;5054262;28;20984;-65
2022/10/01 07:48:45;;;;;;;58.90;3.47;;;;;;;;;;5054122;28;20451;-65
2022/10/01 07:51:12;;;;;;;58.73;3.30;;;;;;;;;;5054306;28;20836;-66
2022/10/01 07:53:39;;;;;;;59.27;3.20;;;;;;;;;;5054081;28;20452;-64
2022/10/01 07:56:06;;;;;;;58.37;3.00;;;;;;;;;;5054113;28;20490;-66
2022/10/01 07:58:34;;;;;;;58.80;3.70;;;;;;;;;;5053650;28;20459;-72
2022/10/01 08:01:03;;;;;;;58.50;3.00;;;;;;;;;;5054441;28;20494;-65
2022/10/01 08:03:32;;;;;;;58.27;3.00;;;;;;;;;;5052800;28;20448;-66
2022/10/01 08:05:59;;;;;;;58.60;3.20;;;;;;;;;;5053801;28;20984;-65
2022/10/01 08:08:26;;;;;;;58.87;3.37;;;;;;;;;;5053797;28;20448;-68
2022/10/01 08:10:53;;;;;;;58.70;3.40;;;;;;;;;;5053455;28;20480;-65
2022/10/01 08:13:23;;;;;;;58.70;3.60;;;;;;;;;;5054045;28;20444;-67
2022/10/01 08:15:52;;;;;;;60.23;3.47;;;;;;;;;;5053618;28;20541;-68
2022/10/01 08:18:19;;;;;;;58.37;3.00;;;;;;;;;;5053643;28;21017;-65
2022/10/01 08:20:48;;;;;;;58.37;3.07;;;;;;;;;;5053399;28;20650;-67
2022/10/01 08:23:16;;;;;;;58.50;2.80;;;;;;;;;;5053625;28;20817;-65
2022/10/01 08:25:44;;;;;;;58.60;3.03;;;;;;;;;;5053471;28;20474;-65
2022/10/01 08:28:12;;;;;;;59.23;3.87;;;;;;;;;;5053423;28;20456;-66
2022/10/01 08:30:40;;;;;;;59.37;4.10;;;;;;;;;;5053329;28;20484;-68
2022/10/01 08:33:08;;;;;;;58.20;2.90;;;;;;;;;;5053407;28;20983;-65
2022/10/01 08:35:35;;;;;;;58.30;2.77;;;;;;;;;;5053377;28;20490;-65
2022/10/01 08:38:03;;;;;;;59.17;3.30;;;;;;;;;;5053167;28;20442;-65
2022/10/01 08:40:33;;;;;;;58.50;3.40;;;;;;;;;;5053265;28;20436;-65
2022/10/01 08:43:02;;;;;;;58.80;3.93;;;;;;;;;;5053211;28;20940;-66
2022/10/01 08:45:33;;;;;;;58.30;3.40;;;;;;;;;;5053191;28;20467;-66
2022/10/01 08:48:04;;;;;;;58.60;3.20;;;;;;;;;;5053184;28;20456;-65
2022/10/01 08:50:35;;;;;;;58.20;2.87;;;;;;;;;;5052654;28;20489;-66
2022/10/01 08:53:05;;;;;;;58.70;3.23;;;;;;;;;;5053320;28;20448;-66
2022/10/01 08:55:36;;;;;;;58.43;3.50;;;;;;;;;;5053140;28;20478;-66
2022/10/01 08:58:04;;;;;;;58.60;3.00;;;;;;;;;;5053046;28;20884;-65
2022/10/01 09:00:32;;;;;;;60.40;3.50;;;;;;;;;;5052596;28;20459;-65
2022/10/01 09:03:00;;;;;;;59.10;3.90;;;;;;;;;;5052820;28;20539;-66
2022/10/01 09:05:29;;;;;;;58.60;3.20;;;;;;;;;;5052879;28;20478;-66
2022/10/01 09:08:02;;;;;;;59.30;3.60;;;;;;;;;;5052873;28;20449;-65
2022/10/01 09:10:35;;;;;;;59.27;3.03;;;;;;;;;;5052829;28;20499;-66
2022/10/01 09:13:14;;;;;;;60.20;4.50;;;;;;;;;;5052763;28;20823;-66
2022/10/01 09:15:43;;;;;;;59.00;3.60;;;;;;;;;;5052086;28;20472;-65
2022/10/01 09:18:15;;;;;;;59.27;3.63;;;;;;;;;;5052725;28;20455;-66
2022/10/01 09:20:44;;;;;;;58.83;3.43;;;;;;;;;;5052396;28;20463;-66
2022/10/01 09:23:16;;;;;;;59.70;4.17;;;;;;;;;;5052566;28;20470;-65
2022/10/01 09:25:49;;;;;;;60.40;4.90;;;;;;;;;;5052533;28;20476;-64
2022/10/01 09:28:17;;;;;;;59.00;3.20;;;;;;;;;;5052705;28;20780;-66
2022/10/01 09:30:46;;;;;;;58.53;3.40;;;;;;;;;;5052262;28;20483;-66
2022/10/01 09:33:16;;;;;;;59.00;3.80;;;;;;;;;;5052200;28;20578;-66
2022/10/01 09:35:45;;;;;;;58.60;3.10;;;;;;;;;;5052320;28;20468;-67
2022/10/01 09:38:16;;;;;;;59.30;3.57;;;;;;;;;;5052207;28;20456;-68
2022/10/01 09:40:47;;;;;;;60.83;3.63;;;;;;;;;;5051856;28;20483;-66
2022/10/01 09:43:21;;;;;;;59.87;3.37;;;;;;;;;;5052213;28;20444;-66
2022/10/01 09:45:49;;;;;;;58.90;3.60;;;;;;;;;;5052219;28;20702;-65
2022/10/01 09:48:20;;;;;;;58.77;3.40;;;;;;;;;;5052074;28;20450;-66
2022/10/01 09:50:58;;;;;;;58.17;2.83;;;;;;;;;;5051714;28;20494;-69
2022/10/01 09:53:30;;;;;;;59.67;3.50;;;;;;;;;;5052312;28;20854;-66
2022/10/01 09:56:00;;;;;;;61.00;4.40;;;;;;;;;;5052061;28;20490;-66
2022/10/01 09:58:29;;;;;;;60.57;3.70;;;;;;;;;;5051950;28;20449;-72
2022/10/01 10:00:56;;;;;;;58.13;2.90;;;;;;;;;;5051706;28;20448;-66
2022/10/01 10:03:25;;;;;;;58.20;3.00;;;;;;;;;;5051844;28;20464;-66
2022/10/01 10:05:52;;;;;;;59.30;3.60;;;;;;;;;;5051944;28;20537;-66
2022/10/01 10:08:24;;;;;;;58.70;3.03;;;;;;;;;;5051935;28;20444;-69
2022/10/01 10:10:52;;;;;;;58.50;2.90;;;;;;;;;;5051597;28;20996;-66
2022/10/01 10:13:30;;;;;;;58.27;2.93;;;;;;;;;;5051730;28;20971;-65
2022/10/01 10:15:58;;;;;;;58.87;3.40;;;;;;;;;;5051626;28;20472;-66
2022/10/01 10:18:28;;;;;;;58.67;2.93;;;;;;;;;;5051801;28;20458;-66
2022/10/01 10:20:56;;;;;;;58.03;2.80;;;;;;;;;;5051751;28;20821;-65
2022/10/01 10:23:25;;;;;;;58.17;2.70;;;;;;;;;;5051788;28;20448;-65
2022/10/01 10:25:59;;;;;;;58.30;2.80;;;;;;;;;;5051644;28;20564;-66
2022/10/01 10:28:28;;;;;;;59.10;3.43;;;;;;;;;;5054881;28;20821;-67
2022/10/01 10:30:57;;;;;;;58.13;3.03;;;;;;;;;;5055793;28;20493;-65
2022/10/01 10:33:25;;;;;;;58.40;3.27;;;;;;;;;;5055686;28;20456;-65
2022/10/01 10:36:00;;;;;;;58.70;3.13;;;;;;;;;;5055616;28;20476;-65
2022/10/01 10:38:30;;;;;;;58.20;3.00;;;;;;;;;;5055541;28;20906;-66
2022/10/01 10:40:57;;;;;;;59.30;3.17;;;;;;;;;;5055405;28;20448;-65
2022/10/01 10:43:25;;;;;;;58.17;2.57;;;;;;;;;;5055542;28;20456;-65
2022/10/01 10:45:55;;;;;;;58.27;2.97;;;;;;;;;;5055635;28;20475;-68
2022/10/01 10:48:24;;;;;;;58.47;2.90;;;;;;;;;;5055426;28;20486;-65
2022/10/01 10:50:58;;;;;;;58.60;2.73;;;;;;;;;;5055040;28;20484;-66
2022/10/01 10:53:27;;;;;;;57.97;2.90;;;;;;;;;;5055269;28;20457;-65
2022/10/01 10:55:56;;;;;;;58.20;2.70;;;;;;;;;;5055378;28;20480;-64
2022/10/01 10:58:25;;;;;;;58.30;2.77;;;;;;;;;;5055329;28;20451;-68
2022/10/01 11:00:56;;;;;;;58.77;2.60;;;;;;;;;;5054906;28;20940;-65
2022/10/01 11:03:24;;;;;;;58.70;3.30;;;;;;;;;;5055038;28;20979;-67
2022/10/01 11:05:55;;;;;;;63.30;3.47;;;;;;;;;;5054980;28;20844;-66
2022/10/01 11:08:24;;;;;;;58.10;3.10;;;;;;;;;;5055212;28;20456;-65
2022/10/01 11:10:57;;;;;;;57.83;2.70;;;;;;;;;;5054848;28;20480;-66
2022/10/01 11:13:33;;;;;;;58.07;2.90;;;;;;;;;;5054991;28;20451;-65
2022/10/01 11:16:21;;;;;;;58.50;2.90;;;;;;;;;;5054946;28;20835;-65
2022/10/01 11:19:00;;;;;;;58.37;2.77;;;;;;;;;;5049561;28;20464;-65
2022/10/01 11:21:36;;;;;;;58.33;3.00;;;;;;;;;;5054965;28;20454;-64
2022/10/01 11:24:11;;;;;;;57.90;2.53;;;;;;;;;;5054743;28;20444;-65
2022/10/01 11:26:44;;;;;;;58.30;3.13;;;;;;;;;;5054814;28;20956;-65
2022/10/01 11:29:17;;;;;;;58.07;2.73;;;;;;;;;;5054548;28;20455;-65
2022/10/01 11:31:49;;;;;;;58.13;2.70;;;;;;;;;;5054509;28;21046;-64
2022/10/01 11:34:40;;;;;;;60.90;2.90;;;;;;;;;;5054500;28;20460;-67
2022/10/01 11:37:13;;;;;;;57.93;2.60;;;;;;;;;;5039339;28;20459;-65
2022/10/01 11:39:43;;;;;;;58.63;3.00;;;;;;;;;;5054100;28;20455;-67
2022/10/01 11:42:11;;;;;;;58.30;2.80;;;;;;;;;;5054382;28;20979;-65
2022/10/01 11:44:42;;;;;;;58.07;2.70;;;;;;;;;;5054548;28;20464;-66
2022/10/01 11:47:11;;;;;;;58.20;2.80;;;;;;;;;;5054267;28;20440;-65
2022/10/01 11:49:46;;;;;;;57.93;2.53;;;;;;;;;;5053856;28;20447;-65
2022/10/01 11:52:18;;;;;;;58.40;3.10;;;;;;;;;;5054431;28;20485;-65
2022/10/01 11:54:52;;;;;;;57.97;2.53;;;;;;;;;;5054343;28;20464;-65
2022/10/01 12:00:06;;;;;;;57.93;2.80;;;;;;;;;;5053713;28;20420;-67
2022/10/01 12:02:35;;;;;;;57.83;2.40;;;;;;;;;;5053922;28;20445;-65
2022/10/01 12:05:06;;;;;;;57.97;2.83;;;;;;;;;;5054088;28;20472;-67
2022/10/01 12:07:38;;;;;;;58.30;2.80;;;;;;;;;;5054386;28;20804;-65
2022/10/01 12:10:16;;;;;;;58.00;2.90;;;;;;;;;;5053448;28;20965;-66
2022/10/01 12:12:46;;;;;;;58.97;3.00;;;;;;;;;;5054152;28;20519;-69
2022/10/01 12:15:17;;;;;;;58.50;3.00;;;;;;;;;;5053697;28;20988;-68
2022/10/01 12:17:45;;;;;;;58.40;2.67;;;;;;;;;;5053863;28;20467;-65
2022/10/01 12:20:18;;;;;;;58.37;2.80;;;;;;;;;;5053472;28;20441;-65
2022/10/01 12:22:48;;;;;;;63.10;4.53;;;;;;;;;;5053746;28;20459;-67
2022/10/01 12:25:15;;;;;;;57.57;2.67;;;;;;;;;;5053381;28;20469;-65
2022/10/01 12:27:53;;;;;;;58.20;3.17;;;;;;;;;;5053766;28;20817;-66
2022/10/01 12:30:21;;;;;;;57.67;2.70;;;;;;;;;;5053203;28;20970;-65
2022/10/01 12:32:54;;;;;;;57.97;2.50;;;;;;;;;;5053497;28;20489;-65
2022/10/01 12:35:34;;;;;;;58.43;2.90;;;;;;;;;;5053302;28;20487;-65
2022/10/01 12:38:11;;;;;;;57.67;2.40;;;;;;;;;;5053493;28;21121;-65
2022/10/01 12:40:42;;;;;;;57.57;2.40;;;;;;;;;;5053208;28;20455;-66
2022/10/01 12:43:36;;;;;;;58.20;3.03;;;;;;;;;;5053416;28;20448;-65
2022/10/01 12:46:06;;;;;;;57.70;2.43;;;;;;;;;;5017433;28;20473;-65
2022/10/01 12:48:37;;;;;;;57.80;2.50;;;;;;;;;;5053135;28;20454;-66
2022/10/01 12:51:13;;;;;;;57.87;2.80;;;;;;;;;;5052469;28;20454;-67
2022/10/01 12:53:45;;;;;;;58.77;3.13;;;;;;;;;;5053243;28;20461;-66
2022/10/01 12:56:16;;;;;;;57.87;2.50;;;;;;;;;;5053026;28;20843;-66
2022/10/01 12:58:53;;;;;;;57.67;2.40;;;;;;;;;;5053028;28;20817;-65
2022/10/01 13:01:26;;;;;;;57.97;2.50;;;;;;;;;;5053074;28;20972;-67
2022/10/01 13:04:08;;;;;;;58.00;2.40;;;;;;;;;;5053203;28;20471;-66
2022/10/01 13:06:41;;;;;;;57.93;2.33;;;;;;;;;;5052865;28;20456;-66
2022/10/01 13:09:14;;;;;;;57.57;2.47;;;;;;;;;;5052515;28;20459;-65
2022/10/01 13:11:53;;;;;;;57.67;2.47;;;;;;;;;;5052865;28;20486;-66
2022/10/01 13:14:21;;;;;;;57.67;2.30;;;;;;;;;;5052575;28;20494;-66
2022/10/01 13:16:53;;;;;;;58.07;2.70;;;;;;;;;;5053065;28;20498;-65
2022/10/01 13:19:23;;;;;;;58.50;2.60;;;;;;;;;;5052205;28;20521;-66
2022/10/01 13:21:57;;;;;;;58.20;2.63;;;;;;;;;;5052762;28;20530;-66
2022/10/01 13:24:29;;;;;;;58.27;2.40;;;;;;;;;;5052412;28;20470;-65
2022/10/01 13:26:59;;;;;;;58.20;2.50;;;;;;;;;;5052605;28;20458;-65
2022/10/01 13:29:32;;;;;;;58.10;2.50;;;;;;;;;;5052577;28;20461;-66
2022/10/01 13:32:00;;;;;;;57.90;2.67;;;;;;;;;;5052236;28;20490;-65
2022/10/01 13:34:34;;;;;;;58.17;2.40;;;;;;;;;;5052229;28;20482;-66
2022/10/01 13:37:12;;;;;;;57.57;2.50;;;;;;;;;;5052424;28;20446;-67
2022/10/01 13:39:41;;;;;;;57.83;2.57;;;;;;;;;;5051852;28;20950;-66
2022/10/01 13:42:11;;;;;;;57.90;2.50;;;;;;;;;;5052136;28;20825;-66
2022/10/01 13:44:39;;;;;;;57.77;2.27;;;;;;;;;;5052210;28;20471;-66
2022/10/01 13:47:08;;;;;;;57.80;2.40;;;;;;;;;;5052271;28;20450;-66
2022/10/01 13:49:37;;;;;;;57.80;2.40;;;;;;;;;;5051726;28;20451;-70
2022/10/01 13:52:04;;;;;;;57.93;2.50;;;;;;;;;;5051898;28;20480;-67
2022/10/01 13:54:35;;;;;;;57.77;2.30;;;;;;;;;;5051910;28;20468;-69
2022/10/01 13:57:10;;;;;;;57.67;2.60;;;;;;;;;;5052138;28;20945;-67
2022/10/01 13:59:37;;;;;;;58.70;2.60;;;;;;;;;;5051702;28;20451;-65
2022/10/01 14:02:19;;;;;;;57.57;2.20;;;;;;;;;;5051839;28;20459;-66
2022/10/01 14:04:49;;;;;;;58.10;2.40;;;;;;;;;;5051865;28;20467;-67
2022/10/01 14:07:17;;;;;;;57.80;2.40;;;;;;;;;;5051751;28;20487;-70
2022/10/01 14:09:45;;;;;;;57.87;2.43;;;;;;;;;;5051440;28;20967;-66
2022/10/01 14:17:58;;;;;;;57.47;2.20;;;;;;;;;;5051751;28;20420;-66
2022/10/01 14:20:27;;;;;;;57.67;2.20;;;;;;;;;;5051843;28;20488;-66
2022/10/01 14:23:01;;;;;;;57.47;2.10;;;;;;;;;;5051793;28;20445;-68
2022/10/01 14:25:36;;;;;;;57.53;2.37;;;;;;;;;;5052073;28;20472;-69
2022/10/01 14:28:14;;;;;;;57.90;2.40;;;;;;;;;;5051481;28;20451;-66
2022/10/01 14:30:46;;;;;;;57.77;2.37;;;;;;;;;;5051542;28;20448;-66
2022/10/01 14:33:19;;;;;;;57.43;2.37;;;;;;;;;;5051372;28;20482;-67
2022/10/01 14:35:49;;;;;;;57.57;2.30;;;;;;;;;;5051607;28;20471;-66
2022/10/01 14:38:20;;;;;;;57.90;2.33;;;;;;;;;;5051514;28;20449;-65
2022/10/01 14:40:48;;;;;;;58.07;2.50;;;;;;;;;;5051511;28;20459;-70
2022/10/01 14:43:18;;;;;;;58.07;2.40;;;;;;;;;;5051482;28;20448;-68
2022/10/01 14:45:52;;;;;;;57.80;2.20;;;;;;;;;;5051430;28;20470;-67
2022/10/01 14:48:19;;;;;;;57.63;2.40;;;;;;;;;;5051325;28;20936;-66
2022/10/01 14:50:47;;;;;;;62.10;2.67;;;;;;;;;;5051228;28;20459;-65
2022/10/01 14:53:16;;;;;;;57.97;2.40;;;;;;;;;;5051229;28;21004;-65
2022/10/01 14:55:44;;;;;;;57.67;2.40;;;;;;;;;;5051408;28;21005;-67
2022/10/01 14:58:19;;;;;;;57.70;2.20;;;;;;;;;;5051401;28;20447;-65